Terminal Aerodrome Forecast
Issued by NWS Green Bay, WI

Home | Current Version | Previous Version | Graphics & Text | Print | Product List | Glossary On
Versions: 1 2 3 4 5 6 7 8 9 10 11 12 13 14 15 16 17 18 19 20 21 22 23 24 25 26 27
000
FTUS43 KGRB 032300
TAFGRB
TAF
KGRB 032322Z 0400/0424 28011G18KT P6SM BKN028
      TEMPO 0400/0404 SCT028 BKN035
     FM040500 29010G19KT P6SM SCT025 SCT035
     FM041600 29016G24KT P6SM SCT030=

USA.gov is the U.S. government's official web portal to all federal, state and local government web resources and services.